createdAt,value
2018-04-06T00:01:05.833Z,0
2018-04-06T00:02:14.659Z,0
2018-04-06T00:03:23.489Z,0
2018-04-06T00:04:32.318Z,0
2018-04-06T00:05:41.694Z,0
2018-04-06T00:06:50.520Z,0
2018-04-06T00:07:59.629Z,0
2018-04-06T00:09:08.455Z,0
2018-04-06T00:10:17.562Z,0
2018-04-06T00:11:26.538Z,0
2018-04-06T00:12:35.368Z,0
2018-04-06T00:13:44.192Z,0
2018-04-06T00:14:53.018Z,0
2018-04-06T00:16:01.847Z,0
2018-04-06T00:17:10.737Z,0
2018-04-06T00:18:19.567Z,0
2018-04-06T00:19:28.676Z,0
2018-04-06T00:20:37.779Z,0
2018-04-06T00:21:46.607Z,0
2018-04-06T00:22:55.682Z,0
2018-04-06T00:24:04.510Z,0
2018-04-06T00:25:13.337Z,0
2018-04-06T00:26:22.166Z,0
2018-04-06T00:27:30.995Z,0
2018-04-06T00:28:39.972Z,0
2018-04-06T00:29:48.800Z,0
2018-04-06T00:30:57.630Z,0
2018-04-06T00:32:06.740Z,0
2018-04-06T00:33:15.573Z,0
2018-04-06T00:34:24.399Z,0
2018-04-06T00:35:33.499Z,0
2018-04-06T00:36:42.883Z,0
2018-04-06T00:37:51.708Z,0
2018-04-06T00:39:00.538Z,0
2018-04-06T00:40:09.513Z,0
2018-04-06T00:41:18.341Z,0
2018-04-06T00:42:27.174Z,0
2018-04-06T00:43:36.000Z,0
2018-04-06T00:44:45.106Z,0
2018-04-06T00:45:53.932Z,0
2018-04-06T00:47:03.041Z,0
2018-04-06T00:48:11.869Z,0
2018-04-06T00:49:20.699Z,0
2018-04-06T00:50:29.525Z,0
2018-04-06T00:51:38.355Z,0
2018-04-06T00:52:47.182Z,0
2018-04-06T00:53:56.009Z,0
2018-04-06T00:55:04.834Z,0
2018-04-06T00:56:13.666Z,0
2018-04-06T00:57:22.650Z,0
2018-04-06T00:58:31.475Z,0
2018-04-06T00:59:40.577Z,0
2018-04-06T01:00:49.410Z,0
2018-04-06T01:01:58.509Z,0
2018-04-06T01:03:07.337Z,0
2018-04-06T01:04:16.167Z,0
2018-04-06T01:05:25.267Z,0
2018-04-06T01:06:34.096Z,0
2018-04-06T01:07:42.923Z,0
2018-04-06T01:08:51.903Z,0
2018-04-06T01:10:00.727Z,0
2018-04-06T01:11:09.558Z,0
2018-04-06T01:12:18.383Z,0
2018-04-06T01:13:27.211Z,0
2018-04-06T01:14:36.366Z,0
2018-04-06T01:15:45.199Z,0
2018-04-06T01:16:54.027Z,0
2018-04-06T01:18:02.855Z,0
2018-04-06T01:19:11.682Z,0
2018-04-06T01:20:20.508Z,0
2018-04-06T01:21:29.339Z,0
2018-04-06T01:22:38.161Z,0
2018-04-06T01:23:47.279Z,0
2018-04-06T01:24:56.382Z,0
2018-04-06T01:26:05.209Z,0
2018-04-06T01:27:14.048Z,0
2018-04-06T01:28:23.142Z,0
2018-04-06T01:29:31.969Z,0
2018-04-06T01:30:40.798Z,0
2018-04-06T01:31:50.020Z,0
2018-04-06T01:32:59.401Z,0
2018-04-06T01:34:08.504Z,0
2018-04-06T01:35:17.612Z,0
2018-04-06T01:36:26.443Z,0
2018-04-06T01:37:35.541Z,0
2018-04-06T01:38:44.369Z,0
2018-04-06T01:39:53.196Z,0
2018-04-06T01:41:02.029Z,0
2018-04-06T01:42:10.858Z,0
2018-04-06T01:43:19.686Z,0
2018-04-06T01:44:28.511Z,0
2018-04-06T01:45:37.612Z,0
2018-04-06T01:46:46.441Z,0
2018-04-06T01:47:55.264Z,0
2018-04-06T01:49:04.242Z,0
2018-04-06T01:50:13.342Z,0
2018-04-06T01:51:22.170Z,0
2018-04-06T01:52:30.997Z,0
2018-04-06T01:53:39.826Z,0
2018-04-06T01:54:48.703Z,0
2018-04-06T01:55:57.530Z,0
2018-04-06T01:57:06.643Z,0
2018-04-06T01:58:15.470Z,0
2018-04-06T01:59:24.298Z,0
2018-04-06T02:00:33.431Z,0
2018-04-06T02:01:42.251Z,0
2018-04-06T02:02:51.077Z,0
2018-04-06T02:03:59.908Z,0
2018-04-06T02:05:09.011Z,0
2018-04-06T02:06:17.937Z,0
2018-04-06T02:07:26.764Z,0
2018-04-06T02:08:35.589Z,0
2018-04-06T02:09:44.417Z,0
2018-04-06T02:10:53.244Z,0
2018-04-06T02:12:02.071Z,0
2018-04-06T02:13:10.899Z,0
2018-04-06T02:14:19.729Z,0
2018-04-06T02:15:28.556Z,0
2018-04-06T02:16:37.382Z,0
2018-04-06T02:17:46.209Z,0
2018-04-06T02:18:55.033Z,0
2018-04-06T02:20:04.138Z,0
2018-04-06T02:21:12.966Z,0
2018-04-06T02:22:21.793Z,0
2018-04-06T02:23:30.771Z,0
2018-04-06T02:24:39.703Z,0
2018-04-06T02:25:48.425Z,0
2018-04-06T02:26:57.809Z,0
2018-04-06T02:28:06.636Z,0
2018-04-06T02:29:15.516Z,0
2018-04-06T02:30:24.344Z,0
2018-04-06T02:31:33.171Z,0
2018-04-06T02:32:41.999Z,0
2018-04-06T02:33:50.825Z,0
2018-04-06T02:34:59.655Z,0
2018-04-06T02:36:08.480Z,0
2018-04-06T02:37:17.308Z,0
2018-04-06T02:38:26.137Z,0
2018-04-06T02:39:34.971Z,0
2018-04-06T02:40:44.081Z,0
2018-04-06T02:41:52.936Z,0
2018-04-06T02:43:01.737Z,0
2018-04-06T02:44:10.564Z,0
2018-04-06T02:45:19.748Z,0
2018-04-06T02:46:28.668Z,0
2018-04-06T02:47:37.499Z,0
2018-04-06T02:48:46.328Z,0
2018-04-06T02:49:55.157Z,0
2018-04-06T02:51:03.984Z,0
2018-04-06T02:52:12.912Z,0
2018-04-06T02:53:21.738Z,0
2018-04-06T02:54:30.565Z,0
2018-04-06T02:55:39.396Z,0
2018-04-06T02:56:48.224Z,0
2018-04-06T02:57:57.104Z,0
2018-04-06T02:59:05.932Z,0
2018-04-06T03:00:14.760Z,0
2018-04-06T03:01:23.865Z,0
2018-04-06T03:02:32.692Z,0
2018-04-06T03:03:41.570Z,0
2018-04-06T03:04:50.394Z,0
2018-04-06T03:05:59.221Z,0
2018-04-06T03:07:08.048Z,0
2018-04-06T03:08:16.877Z,0
2018-04-06T03:09:25.804Z,0
2018-04-06T03:10:34.631Z,0
2018-04-06T03:11:43.459Z,0
2018-04-06T03:12:52.287Z,0
2018-04-06T03:14:01.117Z,0
2018-04-06T03:15:09.945Z,0
2018-04-06T03:16:18.771Z,0
2018-04-06T03:17:27.871Z,0
2018-04-06T03:18:36.699Z,0
2018-04-06T03:19:45.526Z,0
2018-04-06T03:20:54.504Z,0
2018-04-06T03:22:03.332Z,0
2018-04-06T03:23:12.156Z,0
2018-04-06T03:24:20.985Z,0
2018-04-06T03:25:29.813Z,0
2018-04-06T03:26:38.737Z,0
2018-04-06T03:27:47.564Z,0
2018-04-06T03:28:56.389Z,0
2018-04-06T03:30:05.224Z,0
2018-04-06T03:31:14.326Z,0
2018-04-06T03:32:23.456Z,0
2018-04-06T03:33:32.283Z,0
2018-04-06T03:34:41.387Z,0
2018-04-06T03:35:50.215Z,0
2018-04-06T03:36:59.596Z,0
2018-04-06T03:38:08.953Z,0
2018-04-06T03:39:17.781Z,0
2018-04-06T03:40:26.607Z,0
2018-04-06T03:41:35.435Z,0
2018-04-06T03:42:44.265Z,0
2018-04-06T03:43:53.239Z,0
2018-04-06T03:45:02.066Z,0
2018-04-06T03:46:10.892Z,0
2018-04-06T03:47:19.722Z,0
2018-04-06T03:48:28.546Z,0
2018-04-06T03:49:37.630Z,0
2018-04-06T03:50:46.449Z,0
2018-04-06T03:51:55.553Z,0
2018-04-06T03:53:04.382Z,0
2018-04-06T03:54:13.485Z,0
2018-04-06T03:55:22.362Z,0
2018-04-06T03:56:31.188Z,0
2018-04-06T03:57:40.016Z,0
2018-04-06T03:58:48.839Z,0
2018-04-06T03:59:57.666Z,0
2018-04-06T04:01:06.541Z,0
2018-04-06T04:02:15.368Z,0
2018-04-06T04:03:24.195Z,0
2018-04-06T04:04:33.302Z,0
2018-04-06T04:05:42.130Z,0
2018-04-06T04:06:50.955Z,0
2018-04-06T04:07:59.783Z,0
2018-04-06T04:09:08.610Z,0
2018-04-06T04:10:17.439Z,0
2018-04-06T04:11:26.264Z,0
2018-04-06T04:12:35.814Z,0
2018-04-06T04:13:44.641Z,0
2018-04-06T04:14:53.466Z,0
2018-04-06T04:16:02.295Z,0
2018-04-06T04:17:11.117Z,0
2018-04-06T04:18:20.303Z,0
2018-04-06T04:19:29.399Z,0
2018-04-06T04:20:38.504Z,0
2018-04-06T04:21:47.342Z,0
2018-04-06T04:22:56.169Z,0
2018-04-06T04:24:05.044Z,0
2018-04-06T04:25:14.150Z,0
2018-04-06T04:26:22.973Z,0
2018-04-06T04:27:31.804Z,0
2018-04-06T04:28:40.630Z,0
2018-04-06T04:29:49.504Z,0
2018-04-06T04:30:58.333Z,0
2018-04-06T04:32:07.161Z,0
2018-04-06T04:33:16.260Z,0
2018-04-06T04:34:25.175Z,0
2018-04-06T04:35:34.442Z,0
2018-04-06T04:36:43.544Z,0
2018-04-06T04:37:52.382Z,0
2018-04-06T04:39:01.475Z,0
2018-04-06T04:40:10.583Z,5
2018-04-06T04:41:19.834Z,5
2018-04-06T04:42:28.938Z,5
2018-04-06T04:43:37.765Z,5
2018-04-06T04:44:46.591Z,5
2018-04-06T04:45:55.416Z,5
2018-04-06T04:47:04.538Z,10
2018-04-06T04:48:13.366Z,10
2018-04-06T04:49:22.191Z,10
2018-04-06T04:50:31.021Z,10
2018-04-06T04:51:39.850Z,15
2018-04-06T04:52:49.287Z,15
2018-04-06T04:53:58.115Z,15
2018-04-06T04:55:06.939Z,15
2018-04-06T04:56:15.766Z,20
2018-04-06T04:57:24.880Z,20
2018-04-06T04:58:33.757Z,20
2018-04-06T04:59:42.863Z,25
2018-04-06T05:00:51.686Z,25
2018-04-06T05:02:00.787Z,25
2018-04-06T05:03:09.614Z,30
2018-04-06T05:04:18.491Z,30
2018-04-06T05:05:27.316Z,30
2018-04-06T05:06:36.147Z,35
2018-04-06T05:07:45.256Z,35
2018-04-06T05:08:54.081Z,40
2018-04-06T05:10:03.113Z,40
2018-04-06T05:11:12.215Z,40
2018-04-06T05:12:21.042Z,45
2018-04-06T05:13:29.869Z,45
2018-04-06T05:14:38.696Z,50
2018-04-06T05:15:47.571Z,50
2018-04-06T05:16:56.400Z,50
2018-04-06T05:18:05.225Z,55
2018-04-06T05:19:14.051Z,55
2018-04-06T05:20:22.877Z,55
2018-04-06T05:21:31.853Z,60
2018-04-06T05:22:40.681Z,60
2018-04-06T05:23:49.508Z,65
2018-04-06T05:24:58.335Z,65
2018-04-06T05:26:07.159Z,65
2018-04-06T05:27:15.984Z,70
2018-04-06T05:28:24.814Z,70
2018-04-06T05:29:33.914Z,70
2018-04-06T05:30:42.740Z,75
2018-04-06T05:31:51.565Z,75
2018-04-06T05:33:00.699Z,75
2018-04-06T05:34:09.523Z,80
2018-04-06T05:35:18.349Z,80
2018-04-06T05:36:27.178Z,80
2018-04-06T05:37:36.006Z,85
2018-04-06T05:38:45.177Z,85
2018-04-06T05:39:53.958Z,85
2018-04-06T05:41:03.077Z,90
2018-04-06T05:42:11.915Z,90
2018-04-06T05:43:20.730Z,90
2018-04-06T05:44:29.556Z,95
2018-04-06T05:45:38.482Z,95
2018-04-06T05:46:47.873Z,95
2018-04-06T05:47:56.700Z,95
2018-04-06T05:49:05.804Z,100
2018-04-06T05:50:14.677Z,100
2018-04-06T05:51:23.506Z,100
2018-04-06T05:52:32.333Z,100
2018-04-06T05:53:41.437Z,105
2018-04-06T05:54:50.265Z,105
2018-04-06T05:55:59.291Z,105
2018-04-06T05:57:08.122Z,105
2018-04-06T05:58:17.004Z,105
2018-04-06T05:59:25.788Z,110
2018-04-06T06:00:34.607Z,110
2018-04-06T06:01:43.709Z,110
2018-04-06T06:02:52.539Z,110
2018-04-06T06:04:01.367Z,115
2018-04-06T06:05:10.191Z,115
2018-04-06T06:06:19.020Z,115
2018-04-06T06:07:28.225Z,115
2018-04-06T06:08:37.054Z,115
2018-04-06T06:09:45.939Z,120
2018-04-06T06:10:54.710Z,120
2018-04-06T06:12:03.538Z,120
2018-04-06T06:13:12.671Z,120
2018-04-06T06:14:21.500Z,120
2018-04-06T06:15:30.331Z,120
2018-04-06T06:16:39.157Z,125
2018-04-06T06:17:48.060Z,125
2018-04-06T06:18:56.965Z,125
2018-04-06T06:20:06.072Z,125
2018-04-06T06:21:14.901Z,125
2018-04-06T06:22:24.005Z,125
2018-04-06T06:23:32.838Z,125
2018-04-06T06:24:41.768Z,130
2018-04-06T06:25:50.591Z,130
2018-04-06T06:26:59.421Z,130
2018-04-06T06:28:08.248Z,130
2018-04-06T06:29:17.101Z,130
2018-04-06T06:30:26.304Z,130
2018-04-06T06:31:35.130Z,130
2018-04-06T06:32:44.236Z,135
2018-04-06T06:33:53.064Z,135
2018-04-06T06:35:01.893Z,135
2018-04-06T06:36:10.733Z,135
2018-04-06T06:37:19.561Z,135
2018-04-06T06:38:28.389Z,135
2018-04-06T06:39:37.218Z,135
2018-04-06T06:40:46.051Z,135
2018-04-06T06:41:55.078Z,135
2018-04-06T06:43:04.217Z,140
2018-04-06T06:44:13.035Z,140
2018-04-06T06:45:22.142Z,140
2018-04-06T06:46:31.527Z,140
2018-04-06T06:47:40.356Z,140
2018-04-06T06:48:49.186Z,140
2018-04-06T06:49:58.011Z,140
2018-04-06T06:51:06.838Z,140
2018-04-06T06:52:15.942Z,140
2018-04-06T06:53:24.870Z,145
2018-04-06T06:54:33.698Z,145
2018-04-06T06:55:42.528Z,145
2018-04-06T06:56:51.356Z,145
2018-04-06T06:58:00.185Z,145
2018-04-06T06:59:09.340Z,145
2018-04-06T07:00:18.450Z,145
2018-04-06T07:01:27.275Z,145
2018-04-06T07:02:36.108Z,145
2018-04-06T07:03:44.955Z,145
2018-04-06T07:04:54.017Z,145
2018-04-06T07:06:02.846Z,150
2018-04-06T07:07:11.949Z,150
2018-04-06T07:08:20.825Z,150
2018-04-06T07:09:29.607Z,150
2018-04-06T07:10:38.485Z,150
2018-04-06T07:11:47.316Z,150
2018-04-06T07:12:56.425Z,150
2018-04-06T07:14:05.554Z,150
2018-04-06T07:15:14.358Z,150
2018-04-06T07:16:23.235Z,150
2018-04-06T07:17:32.064Z,150
2018-04-06T07:18:41.172Z,150
2018-04-06T07:19:50.002Z,150
2018-04-06T07:20:58.833Z,150
2018-04-06T07:22:07.910Z,155
2018-04-06T07:23:16.742Z,150
2018-04-06T07:24:25.583Z,150
2018-04-06T07:25:34.403Z,150
2018-04-06T07:26:43.232Z,150
2018-04-06T07:27:52.115Z,150
2018-04-06T07:29:00.946Z,150
2018-04-06T07:30:09.777Z,150
2018-04-06T07:31:18.885Z,150
2018-04-06T07:32:28.327Z,150
2018-04-06T07:33:37.183Z,150
2018-04-06T07:34:46.011Z,150
2018-04-06T07:35:54.846Z,150
2018-04-06T07:37:03.676Z,150
2018-04-06T07:38:12.501Z,150
2018-04-06T07:39:21.480Z,155
2018-04-06T07:40:30.314Z,155
2018-04-06T07:41:39.139Z,155
2018-04-06T07:42:47.968Z,155
2018-04-06T07:43:57.076Z,155
2018-04-06T07:45:06.208Z,155
2018-04-06T07:46:15.314Z,155
2018-04-06T07:47:24.141Z,155
2018-04-06T07:48:32.974Z,155
2018-04-06T07:49:41.800Z,155
2018-04-06T07:50:50.630Z,160
2018-04-06T07:51:59.736Z,160
2018-04-06T07:53:08.567Z,160
2018-04-06T07:54:17.394Z,160
2018-04-06T07:55:26.225Z,160
2018-04-06T07:56:35.156Z,160
2018-04-06T07:57:43.987Z,160
2018-04-06T07:58:52.819Z,165
2018-04-06T08:00:01.648Z,160
2018-04-06T08:01:10.757Z,165
2018-04-06T08:02:19.728Z,165
2018-04-06T08:03:28.516Z,165
2018-04-06T08:04:37.396Z,165
2018-04-06T08:05:46.505Z,165
2018-04-06T08:06:55.331Z,165
2018-04-06T08:08:04.657Z,165
2018-04-06T08:09:13.760Z,165
2018-04-06T08:10:22.865Z,165
2018-04-06T08:11:31.696Z,170
2018-04-06T08:12:40.525Z,170
2018-04-06T08:13:49.412Z,175
2018-04-06T08:14:58.514Z,170
2018-04-06T08:16:07.905Z,170
2018-04-06T08:17:17.017Z,170
2018-04-06T08:18:26.132Z,170
2018-04-06T08:19:35.287Z,170
2018-04-06T08:20:44.671Z,170
2018-04-06T08:21:53.501Z,170
2018-04-06T08:23:02.333Z,175
2018-04-06T08:24:11.165Z,175
2018-04-06T08:25:20.043Z,175
2018-04-06T08:26:29.208Z,175
2018-04-06T08:27:38.017Z,175
2018-04-06T08:28:46.847Z,175
2018-04-06T08:29:55.678Z,175
2018-04-06T08:31:04.791Z,175
2018-04-06T08:32:13.897Z,175
2018-04-06T08:33:22.726Z,175
2018-04-06T08:34:31.559Z,180
2018-04-06T08:35:40.387Z,180
2018-04-06T08:36:49.270Z,180
2018-04-06T08:37:58.103Z,180
2018-04-06T08:39:06.933Z,180
2018-04-06T08:40:15.767Z,180
2018-04-06T08:41:24.597Z,180
2018-04-06T08:42:33.478Z,180
2018-04-06T08:43:42.310Z,180
2018-04-06T08:44:51.141Z,180
2018-04-06T08:45:59.974Z,180
2018-04-06T08:47:09.083Z,180
2018-04-06T08:48:17.972Z,185
2018-04-06T08:49:26.796Z,180
2018-04-06T08:50:35.629Z,185
2018-04-06T08:51:44.462Z,185
2018-04-06T08:52:53.294Z,185
2018-04-06T08:54:02.427Z,185
2018-04-06T08:55:11.534Z,185
2018-04-06T08:56:20.364Z,185
2018-04-06T08:57:29.477Z,185
2018-04-06T08:58:38.309Z,185
2018-04-06T08:59:47.666Z,180
2018-04-06T09:00:56.496Z,180
2018-04-06T09:02:05.619Z,180
2018-04-06T09:03:14.449Z,180
2018-04-06T09:04:23.282Z,180
2018-04-06T09:05:32.312Z,180
2018-04-06T09:06:41.145Z,185
2018-04-06T09:07:49.980Z,185
2018-04-06T09:08:58.808Z,185
2018-04-06T09:10:07.639Z,185
2018-04-06T09:11:16.676Z,185
2018-04-06T09:12:25.509Z,185
2018-04-06T09:13:34.341Z,185
2018-04-06T09:14:43.173Z,185
2018-04-06T09:15:52.299Z,185
2018-04-06T09:17:01.132Z,185
2018-04-06T09:18:09.965Z,185
2018-04-06T09:19:18.796Z,185
2018-04-06T09:20:27.628Z,185
2018-04-06T09:21:36.465Z,190
2018-04-06T09:22:45.448Z,190
2018-04-06T09:23:54.282Z,195
2018-04-06T09:25:03.116Z,190
2018-04-06T09:26:11.948Z,190
2018-04-06T09:27:20.783Z,190
2018-04-06T09:28:29.616Z,190
2018-04-06T09:29:38.727Z,190
2018-04-06T09:30:47.561Z,190
2018-04-06T09:31:56.391Z,190
2018-04-06T09:33:05.223Z,190
2018-04-06T09:34:14.208Z,190
2018-04-06T09:35:23.043Z,195
2018-04-06T09:36:31.879Z,195
2018-04-06T09:37:40.712Z,195
2018-04-06T09:38:49.545Z,195
2018-04-06T09:39:58.682Z,195
2018-04-06T09:41:07.515Z,195
2018-04-06T09:42:16.347Z,195
2018-04-06T09:43:25.181Z,195
2018-04-06T09:44:34.014Z,195
2018-04-06T09:45:42.895Z,195
2018-04-06T09:46:51.731Z,195
2018-04-06T09:48:00.567Z,195
2018-04-06T09:49:09.398Z,195
2018-04-06T09:50:18.233Z,200
2018-04-06T09:51:27.067Z,200
2018-04-06T09:52:36.180Z,200
2018-04-06T09:53:45.014Z,200
2018-04-06T09:54:53.846Z,200
2018-04-06T09:56:02.677Z,205
2018-04-06T09:57:11.933Z,200
2018-04-06T09:58:20.768Z,200
2018-04-06T09:59:29.600Z,200
2018-04-06T10:00:38.435Z,200
2018-04-06T10:01:47.546Z,205
2018-04-06T10:02:56.497Z,200
2018-04-06T10:04:05.542Z,205
2018-04-06T10:05:14.649Z,205
2018-04-06T10:06:23.484Z,205
2018-04-06T10:07:32.321Z,210
2018-04-06T10:08:41.527Z,205
2018-04-06T10:09:50.362Z,205
2018-04-06T10:10:59.192Z,205
2018-04-06T10:12:08.027Z,205
2018-04-06T10:13:16.860Z,205
2018-04-06T10:14:25.742Z,210
2018-04-06T10:15:34.577Z,210
2018-04-06T10:16:43.410Z,210
2018-04-06T10:17:52.244Z,215
2018-04-06T10:19:01.076Z,215
2018-04-06T10:20:09.961Z,215
2018-04-06T10:21:19.068Z,215
2018-04-06T10:22:27.952Z,215
2018-04-06T10:23:36.786Z,220
2018-04-06T10:24:45.618Z,215
2018-04-06T10:25:54.601Z,220
2018-04-06T10:27:03.436Z,220
2018-04-06T10:28:12.270Z,220
2018-04-06T10:29:21.380Z,225
2018-04-06T10:30:30.215Z,225
2018-04-06T10:31:39.148Z,230
2018-04-06T10:32:48.543Z,230
2018-04-06T10:33:57.652Z,230
2018-04-06T10:35:06.506Z,230
2018-04-06T10:36:15.596Z,230
2018-04-06T10:37:24.432Z,230
2018-04-06T10:38:33.268Z,230
2018-04-06T10:39:42.097Z,230
2018-04-06T10:40:50.931Z,225
2018-04-06T10:41:59.768Z,225
2018-04-06T10:43:08.652Z,225
2018-04-06T10:44:17.487Z,225
2018-04-06T10:45:26.322Z,225
2018-04-06T10:46:35.155Z,225
2018-04-06T10:47:43.988Z,230
2018-04-06T10:48:53.072Z,230
2018-04-06T10:50:02.194Z,230
2018-04-06T10:51:11.026Z,235
2018-04-06T10:52:19.861Z,235
2018-04-06T10:53:29.143Z,240
2018-04-06T10:54:37.988Z,240
2018-04-06T10:55:46.824Z,245
2018-04-06T10:56:55.657Z,245
2018-04-06T10:58:04.492Z,250
2018-04-06T10:59:13.325Z,250
2018-04-06T11:00:22.210Z,255
2018-04-06T11:01:31.044Z,260
2018-04-06T11:02:39.927Z,260
2018-04-06T11:03:48.761Z,260
2018-04-06T11:04:57.595Z,265
2018-04-06T11:06:06.856Z,265
2018-04-06T11:07:15.970Z,265
2018-04-06T11:08:24.809Z,265
2018-04-06T11:09:33.644Z,265
2018-04-06T11:10:42.478Z,265
2018-04-06T11:11:51.363Z,270
2018-04-06T11:13:00.197Z,265
2018-04-06T11:14:09.318Z,265
2018-04-06T11:15:18.148Z,270
2018-04-06T11:16:26.985Z,270
2018-04-06T11:17:35.974Z,270
2018-04-06T11:18:45.085Z,275
2018-04-06T11:19:53.921Z,275
2018-04-06T11:21:02.758Z,285
2018-04-06T11:22:11.620Z,295
2018-04-06T11:23:20.727Z,295
2018-04-06T11:24:29.565Z,305
2018-04-06T11:25:38.420Z,310
2018-04-06T11:26:47.253Z,310
2018-04-06T11:27:56.092Z,310
2018-04-06T11:29:04.927Z,310
2018-04-06T11:30:13.823Z,315
2018-04-06T11:31:22.663Z,310
2018-04-06T11:32:31.513Z,310
2018-04-06T11:33:40.364Z,310
2018-04-06T11:34:49.352Z,310
2018-04-06T11:35:58.190Z,315
2018-04-06T11:37:07.066Z,315
2018-04-06T11:38:16.176Z,320
2018-04-06T11:39:25.013Z,325
2018-04-06T11:40:33.846Z,325
2018-04-06T11:41:42.685Z,325
2018-04-06T11:42:51.521Z,330
2018-04-06T11:44:00.361Z,330
2018-04-06T11:45:09.475Z,330
2018-04-06T11:46:18.923Z,335
2018-04-06T11:47:27.778Z,340
2018-04-06T11:48:36.616Z,345
2018-04-06T11:49:45.729Z,350
2018-04-06T11:50:54.569Z,355
2018-04-06T11:52:03.834Z,365
2018-04-06T11:53:12.680Z,380
2018-04-06T11:54:21.512Z,390
2018-04-06T11:55:30.345Z,425
2018-04-06T11:56:39.183Z,460
2018-04-06T11:57:48.092Z,505
2018-04-06T11:58:56.930Z,1445
2018-04-06T12:00:05.766Z,2350
2018-04-06T12:01:14.605Z,2255
2018-04-06T12:02:23.444Z,2260
2018-04-06T12:03:32.336Z,2440
2018-04-06T12:04:41.182Z,2595
2018-04-06T12:05:50.490Z,2485
2018-04-06T12:07:00.510Z,2135
2018-04-06T12:08:09.671Z,1815
2018-04-06T12:09:19.061Z,1585
2018-04-06T12:10:27.962Z,1630
2018-04-06T12:11:37.260Z,1495
2018-04-06T12:12:47.655Z,1665
2018-04-06T12:13:56.527Z,1375
2018-04-06T12:15:05.531Z,1515
2018-04-06T12:16:14.434Z,1965
2018-04-06T12:17:23.576Z,2250
2018-04-06T12:18:32.695Z,2505
2018-04-06T12:19:43.043Z,2265
2018-04-06T12:20:52.443Z,2050
2018-04-06T12:22:01.960Z,1645
2018-04-06T12:23:11.393Z,1375
2018-04-06T12:24:20.383Z,1140
2018-04-06T12:25:29.828Z,1755
2018-04-06T12:26:39.110Z,2395
2018-04-06T12:27:48.343Z,2675
2018-04-06T12:28:57.437Z,2230
2018-04-06T12:30:06.758Z,2405
2018-04-06T12:31:15.905Z,2415
2018-04-06T12:32:25.375Z,1935
2018-04-06T12:33:34.496Z,1795
2018-04-06T12:34:43.382Z,2530
2018-04-06T12:35:52.600Z,2395
2018-04-06T12:37:01.449Z,1520
2018-04-06T12:38:10.314Z,1335
2018-04-06T12:39:19.170Z,2000
2018-04-06T12:40:28.016Z,1820
2018-04-06T12:41:37.102Z,2370
2018-04-06T12:42:45.947Z,2825
2018-04-06T12:43:54.790Z,2040
2018-04-06T12:45:03.634Z,2045
2018-04-06T12:46:12.490Z,2410
2018-04-06T12:47:21.337Z,2265
2018-04-06T12:48:30.454Z,2155
2018-04-06T12:49:39.301Z,2215
2018-04-06T12:50:48.178Z,2785
2018-04-06T12:51:57.027Z,2400
2018-04-06T12:53:05.884Z,1920
2018-04-06T12:54:14.725Z,2100
2018-04-06T12:55:23.846Z,2595
2018-04-06T12:56:32.696Z,1800
2018-04-06T12:57:41.544Z,1005
2018-04-06T12:58:50.394Z,1170
2018-04-06T12:59:59.518Z,1735
2018-04-06T13:01:08.364Z,1685
2018-04-06T13:02:17.211Z,1300
2018-04-06T13:03:26.052Z,1635
2018-04-06T13:04:34.901Z,2005
2018-04-06T13:05:44.297Z,1440
2018-04-06T13:06:53.153Z,1365
2018-04-06T13:08:01.999Z,2090
2018-04-06T13:09:10.954Z,2075
2018-04-06T13:10:19.841Z,1865
2018-04-06T13:11:28.660Z,1590
2018-04-06T13:12:37.782Z,1115
2018-04-06T13:13:46.624Z,1700
2018-04-06T13:14:55.809Z,915
2018-04-06T13:16:04.928Z,1730
2018-04-06T13:17:14.069Z,1750
2018-04-06T13:18:22.961Z,1900
2018-04-06T13:19:32.034Z,1380
2018-04-06T13:20:41.026Z,2165
2018-04-06T13:21:49.869Z,2505
2018-04-06T13:22:58.714Z,1785
2018-04-06T13:24:07.559Z,1585
2018-04-06T13:25:16.405Z,1140
2018-04-06T13:26:25.819Z,1170
2018-04-06T13:27:34.682Z,1005
2018-04-06T13:28:43.551Z,1260
2018-04-06T13:29:52.428Z,1580
2018-04-06T13:31:01.279Z,1490
2018-04-06T13:32:10.516Z,990
2018-04-06T13:33:19.359Z,985
2018-04-06T13:34:28.876Z,1275
2018-04-06T13:35:37.736Z,1590
2018-04-06T13:36:46.581Z,1580
2018-04-06T13:37:55.530Z,1450
2018-04-06T13:39:04.375Z,1250
2018-04-06T13:40:13.250Z,1760
2018-04-06T13:41:22.095Z,1740
2018-04-06T13:42:30.939Z,1355
2018-04-06T13:43:39.832Z,1705
2018-04-06T13:44:48.678Z,2070
2018-04-06T13:45:57.591Z,2440
2018-04-06T13:47:06.771Z,2560
2018-04-06T13:48:15.664Z,2780
2018-04-06T13:49:24.702Z,2755
2018-04-06T13:50:33.852Z,2190
2018-04-06T13:51:42.990Z,2425
2018-04-06T13:52:51.837Z,3085
2018-04-06T13:54:00.683Z,2910
2018-04-06T13:55:09.640Z,2865
2018-04-06T13:56:18.492Z,2415
2018-04-06T13:57:27.340Z,2155
2018-04-06T13:58:36.260Z,2475
2018-04-06T13:59:45.400Z,1835
2018-04-06T14:00:54.322Z,1875
2018-04-06T14:02:03.377Z,2230
2018-04-06T14:03:12.224Z,2050
2018-04-06T14:04:21.347Z,2805
2018-04-06T14:05:30.197Z,2935
2018-04-06T14:06:39.444Z,2910
2018-04-06T14:07:48.296Z,2740
2018-04-06T14:08:57.421Z,2645
2018-04-06T14:10:06.280Z,2650
2018-04-06T14:11:15.129Z,2970
2018-04-06T14:12:24.280Z,3085
2018-04-06T14:13:33.150Z,3005
2018-04-06T14:14:42.002Z,3045
2018-04-06T14:15:51.458Z,3175
2018-04-06T14:17:00.620Z,2920
2018-04-06T14:18:09.962Z,2950
2018-04-06T14:19:18.856Z,2945
2018-04-06T14:20:27.706Z,2980
2018-04-06T14:21:36.560Z,3045
2018-04-06T14:22:45.719Z,2850
2018-04-06T14:23:54.727Z,2675
2018-04-06T14:25:03.856Z,2850
2018-04-06T14:26:12.709Z,3020
2018-04-06T14:27:21.791Z,3085
2018-04-06T14:28:30.664Z,2915
2018-04-06T14:29:39.619Z,2900
2018-04-06T14:30:48.474Z,2825
2018-04-06T14:31:57.380Z,2815
2018-04-06T14:33:06.238Z,2910
2018-04-06T14:34:15.089Z,2925
2018-04-06T14:35:23.990Z,3060
2018-04-06T14:36:32.845Z,3020
2018-04-06T14:37:41.698Z,3010
2018-04-06T14:38:50.579Z,2955
2018-04-06T14:39:59.404Z,3055
2018-04-06T14:41:08.315Z,2790
2018-04-06T14:42:17.171Z,2735
2018-04-06T14:43:26.018Z,2345
2018-04-06T14:44:34.870Z,2415
2018-04-06T14:45:43.721Z,2240
2018-04-06T14:46:52.901Z,2120
2018-04-06T14:48:01.760Z,2065
2018-04-06T14:49:10.645Z,2045
2018-04-06T14:50:19.518Z,2200
2018-04-06T14:51:28.369Z,2365
2018-04-06T14:52:37.352Z,2495
2018-04-06T14:53:46.217Z,2590
2018-04-06T14:54:55.146Z,2510
2018-04-06T14:56:04.002Z,2475
2018-04-06T14:57:12.853Z,2280
2018-04-06T14:58:21.906Z,2180
2018-04-06T14:59:30.763Z,2205
2018-04-06T15:00:39.888Z,2345
2018-04-06T15:01:48.738Z,2235
2018-04-06T15:02:57.589Z,2220
2018-04-06T15:04:06.786Z,2340
2018-04-06T15:05:15.639Z,2270
2018-04-06T15:06:24.508Z,2310
2018-04-06T15:07:33.343Z,2495
2018-04-06T15:08:42.193Z,2520
2018-04-06T15:09:51.326Z,2220
2018-04-06T15:11:00.445Z,1885
2018-04-06T15:12:09.573Z,1580
2018-04-06T15:13:18.703Z,1740
2018-04-06T15:14:27.547Z,1910
2018-04-06T15:15:36.798Z,2190
2018-04-06T15:16:45.923Z,2230
2018-04-06T15:17:54.794Z,2210
2018-04-06T15:19:03.782Z,2220
2018-04-06T15:20:12.624Z,1935
2018-04-06T15:21:21.800Z,1440
2018-04-06T15:22:30.651Z,1320
2018-04-06T15:23:39.502Z,1305
2018-04-06T15:24:48.633Z,1430
2018-04-06T15:25:57.480Z,1225
2018-04-06T15:27:06.328Z,1160
2018-04-06T15:28:15.176Z,1145
2018-04-06T15:29:24.024Z,1125
2018-04-06T15:30:32.873Z,980
2018-04-06T15:31:41.998Z,935
2018-04-06T15:32:50.896Z,1155
2018-04-06T15:33:59.746Z,1075
2018-04-06T15:35:08.592Z,1190
2018-04-06T15:36:17.440Z,1445
2018-04-06T15:37:26.289Z,1530
2018-04-06T15:38:35.385Z,1505
2018-04-06T15:39:44.229Z,1550
2018-04-06T15:40:53.076Z,1730
2018-04-06T15:42:01.921Z,1675
2018-04-06T15:43:10.766Z,1560
2018-04-06T15:44:19.763Z,1220
2018-04-06T15:45:28.611Z,1400
2018-04-06T15:46:37.458Z,1510
2018-04-06T15:47:46.580Z,1740
2018-04-06T15:48:55.431Z,1630
2018-04-06T15:50:04.286Z,1730
2018-04-06T15:51:13.125Z,1500
2018-04-06T15:52:21.978Z,1535
2018-04-06T15:53:31.369Z,1525
2018-04-06T15:54:40.216Z,1395
2018-04-06T15:55:49.114Z,1100
2018-04-06T15:56:57.969Z,1245
2018-04-06T15:58:07.092Z,1295
2018-04-06T15:59:15.939Z,1220
2018-04-06T16:00:24.787Z,1225
2018-04-06T16:01:33.679Z,1060
2018-04-06T16:02:42.527Z,1090